Custer, Oklahoma
Current Conditions -  °F | °C
As of 3:15 PM on Friday 24 Oct 2014 (Local Time) from KCLK Reporting Station
Clear Clear  
Wind Chill: 81°   Ceiling: Unl
Heat Index: 81°   Visibility: 10mi
Dew Point: 54°   Wind: 14mph
Humidity: 39%   Direction: 220°SW
Pressure: 30.04"   Gusts: NA
Location:  35.7358°N, 98.9842°W
Report Text: KCLK 242015Z AUTO 22012KT 10SM CLR 27/12 A3004 RMK AO2
Loading
Personal Weather Stations






























Interactive Weather Map
Tropical Storm Tracking
New forecast layout! Learn more

10-Day Weather Forecast

Advertisements
Track Severe Weather on mobile